KTRI/TRI METAR and TAF weather

Enter ICAO airport designator
Station Type Date Time Source
KTRI METAR 2019/12/08 10:53 UTC NOAA

KTRI 081053Z 06004KT 10SM FEW048 00/M02 A3032 RMK AO2 SLP263 T00001017


Station Type Date Time Source
KTRI Decoded METAR 2019/12/08 10:53 UTC NOAA

TRI-CITY REGIONAL AIRPORT, TN, United States (KTRI) 36-28N 082-24W 474M
Dec 08, 2019 - 05:53 AM EST / 2019.12.08 1053 UTC
Wind: from the ENE (060 degrees) at 5 MPH (4 KT):0
Visibility: 10 mile(s):0
Sky conditions: mostly clear
Temperature: 32.0 F (0.0 C)
Windchill: 26 F (-3 C):1
Dew Point: 28.9 F (-1.7 C)
Relative Humidity: 88%
Pressure (altimeter): 30.32 in. Hg (1026 hPa)
ob: KTRI 081053Z 06004KT 10SM FEW048 00/M02 A3032 RMK AO2 SLP263 T00001017
cycle: 11

Station Type Date Time Source
KTRI TAF 2019/12/08 12:27 UTC NOAA

TAF KTRI 081125Z 0812/0912 VRB03KT P6SM SCT050
FM081700 14006KT P6SM SCT060 BKN250
FM090000 12004KT P6SM BKN070

Example: see airport list